Bookmark and Share
Track history (hours):
 

Flinterborg

Last reported at 2014-Apr-13 22:33 UTC. Time now 2014-Apr-23 13:16 UTC.
Position N 59°42' E 023°23'.
Warning: this ship's position is 9 days out of date.

Length 111 m; draft 6.5 m.

Type: Cargo ship. MMSI: 245433000.

NotesDate/timePositionNaut miles runAvg speedWind from/ knotsBaromVisibWave heightAir tempDewpointWater temp
2014-Apr-13 22:33N 59°42' E 023°23'1010.5
2014-Apr-13 21:33N 59°43' E 023°44'2510.6
2014-Apr-13 19:13N 59°45' E 024°33'710.8
2014-Apr-13 18:33N 59°44' E 024°47'7 0.2
2014-Apr-12 14:23N 59°44' E 025°00'1113.0
2014-Apr-12 13:34N 59°44' E 024°39'2613.1
2014-Apr-12 11:34N 59°41' E 023°47'1313.1
2014-Apr-12 10:34N 59°40' E 023°21'5313.1
2014-Apr-12 06:33N 59°35' E 021°38'  
2014-Apr-07 17:29N 55°38' E 015°23'1111.6
2014-Apr-07 16:33N 55°33' E 015°07'1211.9
2014-Apr-07 15:33N 55°27' E 014°49'1111.2
2014-Apr-07 14:33N 55°20' E 014°33'1111.3
2014-Apr-07 13:33N 55°11' E 014°21'1211.5
2014-Apr-07 12:33N 55°02' E 014°08'1211.5
2014-Apr-07 11:33N 54°58' E 013°49'1211.8
2014-Apr-07 10:33N 54°54' E 013°30'1211.6
2014-Apr-07 09:32N 54°50' E 013°11'1211.5
2014-Apr-07 08:30N 54°47' E 012°51'1111.0
2014-Apr-07 07:31N 54°42' E 012°34'1010.9
2014-Apr-07 06:33N 54°35' E 012°20'1110.7
2014-Apr-07 05:33N 54°26' E 012°11'1111.0
2014-Apr-07 04:33N 54°25' E 011°52'1111.0
2014-Apr-07 03:34N 54°28' E 011°34'1111.0
2014-Apr-07 02:33N 54°33' E 011°17'59 7.9
2014-Apr-06 19:03N 54°17' E 009°39'3 4.4
2014-Apr-06 18:23N 54°15' E 009°37'7 7.9
2014-Apr-06 17:33N 54°11' E 009°28'7 7.3
2014-Apr-06 16:33N 54°05' E 009°19'8 8.5
2014-Apr-06 15:33N 53°57' E 009°15'1 1.2
2014-Apr-06 14:33N 53°56' E 009°13'4 4.0
2014-Apr-06 13:33N 53°54' E 009°09'2 2.0
2014-Apr-06 12:33N 53°53' E 009°06'8 8.4
2014-Apr-06 11:33N 53°50' E 008°52'8 7.6
2014-Apr-06 10:33N 53°54' E 008°41'9 8.7
2014-Apr-06 09:33N 53°58' E 008°28'1010.2
2014-Apr-06 08:33N 53°60' E 008°11'1010.5
2014-Apr-06 07:33N 53°57' E 007°54'1110.6
2014-Apr-06 06:33N 53°55' E 007°36'1110.6
2014-Apr-06 05:33N 53°52' E 007°19'1110.8
2014-Apr-06 04:33N 53°50' E 007°01'2411.3
2014-Apr-06 02:25N 53°44' E 006°21'1011.9
2014-Apr-06 01:33N 53°41' E 006°05'1212.2
2014-Apr-06 00:33N 53°37' E 005°45'1312.5
2014-Apr-05 23:33N 53°33' E 005°25'1312.6
2014-Apr-05 22:33N 53°29' E 005°05'1312.9
2014-Apr-05 21:33N 53°24' E 004°46'1413.3
2014-Apr-05 20:31N 53°12' E 004°33'4513.0
2014-Apr-05 17:06N 52°35' E 003°51'712.4
2014-Apr-05 16:33N 52°30' E 003°44'1211.6
2014-Apr-05 15:33N 52°20' E 003°35'1111.0
2014-Apr-05 14:33N 52°10' E 003°29'1010.3
2014-Apr-05 13:33N 51°60' E 003°23'1010.1
2014-Apr-05 12:33N 51°50' E 003°20'9 9.1
2014-Apr-05 11:33N 51°41' E 003°17'1010.3
2014-Apr-05 10:33N 51°32' E 003°25'1010.2
2014-Apr-05 09:33N 51°25' E 003°38'1212.1
2014-Apr-05 08:34N 51°23' E 003°57'8 8.4
2014-Apr-05 07:33N 51°23' E 004°10'5 5.2
2014-Apr-05 06:34N 51°21' E 004°17'5 5.4
2014-Apr-05 05:33N 51°16' E 004°22'0 0.1
2014-Apr-05 04:32N 51°16' E 004°22'0 0.0
2014-Apr-05 03:32N 51°16' E 004°22'0 0.0
2014-Apr-05 02:31N 51°16' E 004°22'0 0.1
2014-Apr-05 01:31N 51°16' E 004°22'0 0.0
2014-Apr-05 00:25N 51°16' E 004°22'0 0.0
2014-Apr-04 23:30N 51°16' E 004°22'0 0.0
2014-Apr-04 22:33N 51°16' E 004°22'0 0.0
2014-Apr-04 21:29N 51°16' E 004°22'0 0.0
2014-Apr-04 20:32N 51°16' E 004°22'0 0.0
2014-Apr-04 19:31N 51°16' E 004°22'0 0.0
2014-Apr-04 18:31N 51°16' E 004°22'0 0.0
2014-Apr-04 17:31N 51°16' E 004°22'0 0.0
2014-Apr-04 16:33N 51°16' E 004°22'0 0.0
2014-Apr-04 15:33N 51°16' E 004°22'0 0.0
2014-Apr-04 14:22N 51°16' E 004°22'0 0.0
2014-Apr-04 13:29N 51°16' E 004°22'0 0.0
2014-Apr-04 12:33N 51°16' E 004°22'0 0.0
2014-Apr-04 11:31N 51°16' E 004°22'0 0.1
2014-Apr-04 10:28N 51°16' E 004°22'0 0.0
2014-Apr-04 09:33N 51°16' E 004°22'0 0.0
2014-Apr-04 08:33N 51°16' E 004°22'0 0.0
2014-Apr-04 07:32N 51°16' E 004°22'0 0.0
2014-Apr-04 06:23N 51°16' E 004°22'0 0.0
2014-Apr-04 05:31N 51°16' E 004°22'0 0.0
2014-Apr-04 04:31N 51°16' E 004°22'0 0.0
2014-Apr-04 03:34N 51°16' E 004°22'0 0.0
2014-Apr-04 02:33N 51°16' E 004°22'0 0.0
2014-Apr-04 01:33N 51°16' E 004°22'0 0.0
2014-Apr-04 00:32N 51°16' E 004°22'0 0.0
2014-Apr-03 23:32N 51°16' E 004°22'  

Dump ship's entire track history

sailing weather and tide predictions

Flinterborg — PHPH — position and weather